Time;durP1;ratioP1;P1;durP2;ratioP2;P2;SDS_P1;SDS_P2;PMS_P1;PMS_P2;Temp;Humidity;BMP_temperature;BMP_pressure;BME280_temperature;BME280_humidity;BME280_pressure;Samples;Min_cycle;Max_cycle;Signal;HPM_P1;HPM_P2
2023/01/11 00:00:24;;;;;;;0.05;0.05;;;;;;;3.58;100.00;100268.22;6068133;23;20014;-93
2023/01/11 00:03:01;;;;;;;0.00;0.00;;;;;;;3.72;100.00;100276.50;6021178;23;20006;-91
2023/01/11 00:05:26;;;;;;;0.00;0.00;;;;;;;3.67;100.00;100276.88;6044397;23;20018;-92
2023/01/11 00:07:52;;;;;;;0.00;0.00;;;;;;;3.71;100.00;100283.19;6045165;23;20017;-92
2023/01/11 00:10:18;;;;;;;0.13;0.13;;;;;;;3.58;100.00;100265.47;6044901;23;20101;-92
2023/01/11 00:12:44;;;;;;;0.22;0.22;;;;;;;3.53;100.00;100259.56;6020978;23;20014;-92
2023/01/11 00:15:10;;;;;;;0.85;0.65;;;;;;;3.53;100.00;100273.25;6044677;23;20336;-90
2023/01/11 00:17:36;;;;;;;0.00;0.00;;;;;;;3.54;100.00;100289.34;6021627;23;20440;-92
2023/01/11 00:20:02;;;;;;;0.00;0.00;;;;;;;3.44;100.00;100287.31;6043978;23;20018;-92
2023/01/11 00:22:27;;;;;;;0.30;0.30;;;;;;;3.42;100.00;100292.41;6020511;23;20037;-94
2023/01/11 00:24:53;;;;;;;0.95;0.95;;;;;;;3.47;100.00;100294.81;6068366;23;20018;-93
2023/01/11 00:27:18;;;;;;;0.00;0.00;;;;;;;3.35;100.00;100277.88;6068326;23;19995;-92
2023/01/11 00:29:44;;;;;;;0.00;0.00;;;;;;;3.21;100.00;100273.06;6067835;23;20065;-92
2023/01/11 00:32:09;;;;;;;0.00;0.00;;;;;;;3.22;100.00;100280.94;6067280;23;20028;-92
2023/01/11 00:34:35;;;;;;;0.00;0.00;;;;;;;3.24;100.00;100297.78;6067527;23;20009;-92
2023/01/11 00:37:01;;;;;;;0.00;0.00;;;;;;;3.27;100.00;100318.97;6093467;23;20007;-92
2023/01/11 00:39:27;;;;;;;0.00;0.00;;;;;;;3.06;100.00;100296.06;6067933;23;20014;-92
2023/01/11 00:50:05;;;;;;;0.20;0.20;;;;;;;3.22;100.00;100322.06;6071328;23;20343;-93
2023/01/11 00:52:30;;;;;;;0.00;0.00;;;;;;;3.13;100.00;100318.06;6044944;23;20420;-91
2023/01/11 00:54:56;;;;;;;0.00;0.00;;;;;;;3.18;100.00;100337.69;6068327;23;20045;-93
2023/01/11 00:57:22;;;;;;;0.00;0.00;;;;;;;3.04;100.00;100321.13;6043495;23;20435;-91
2023/01/11 00:59:47;;;;;;;0.00;0.00;;;;;;;3.18;100.00;100315.75;6068403;23;20326;-92
2023/01/11 01:02:13;;;;;;;0.00;0.00;;;;;;;3.18;100.00;100329.47;6067492;23;20037;-92
2023/01/11 01:04:38;;;;;;;0.20;0.20;;;;;;;3.25;100.00;100331.47;6066843;23;20439;-92
2023/01/11 01:07:05;;;;;;;0.55;0.35;;;;;;;3.12;100.00;100302.75;6043703;23;20161;-91
2023/01/11 01:09:31;;;;;;;0.08;0.08;;;;;;;3.05;100.00;100308.19;6045305;23;20439;-91
2023/01/11 01:11:57;;;;;;;0.63;0.63;;;;;;;3.23;100.00;100336.56;6073535;23;20097;-90
2023/01/11 01:14:27;;;;;;;0.00;0.00;;;;;;;3.24;100.00;100340.84;6026041;23;20029;-92
2023/01/11 01:16:54;;;;;;;0.00;0.00;;;;;;;3.22;98.91;100330.28;6073584;23;20011;-91
2023/01/11 01:19:21;;;;;;;0.63;0.55;;;;;;;3.35;99.41;100329.97;6071033;23;20015;-92
2023/01/11 01:21:48;;;;;;;0.00;0.00;;;;;;;3.34;100.00;100328.38;6049224;23;20034;-90
2023/01/11 01:24:13;;;;;;;0.28;0.28;;;;;;;3.22;99.72;100315.78;6068891;23;20058;-93
2023/01/11 01:26:39;;;;;;;0.00;0.00;;;;;;;3.26;97.88;100328.34;6044416;23;20346;-93
2023/01/11 01:29:05;;;;;;;0.15;0.15;;;;;;;3.24;98.99;100321.66;6020838;23;20340;-92
2023/01/11 01:31:30;;;;;;;0.00;0.00;;;;;;;3.25;99.11;100331.47;6068579;23;20093;-92
2023/01/11 01:33:56;;;;;;;0.15;0.15;;;;;;;3.26;99.79;100355.75;6043958;23;20013;-92
2023/01/11 01:36:22;;;;;;;0.00;0.00;;;;;;;3.24;99.50;100340.84;6043987;23;20486;-91
2023/01/11 01:38:47;;;;;;;0.00;0.00;;;;;;;3.07;100.00;100319.59;6019545;23;20010;-91
2023/01/11 01:41:13;;;;;;;0.00;0.00;;;;;;;3.19;96.14;100327.50;6094616;23;20006;-92
2023/01/11 01:43:53;;;;;;;0.00;0.00;;;;;;;3.30;97.13;100317.41;6068129;23;20014;-91
2023/01/11 01:46:21;;;;;;;0.20;0.20;;;;;;;3.33;94.97;100305.66;6021585;23;20439;-92
2023/01/11 01:48:54;;;;;;;0.00;0.00;;;;;;;3.37;96.01;100306.47;6043802;23;20006;-92
2023/01/11 01:51:31;;;;;;;0.00;0.00;;;;;;;3.32;94.97;100315.06;6069235;23;20011;-92
2023/01/11 01:54:02;;;;;;;0.00;0.00;;;;;;;3.45;94.07;100330.03;6021414;23;20017;-92
2023/01/11 01:56:30;;;;;;;0.00;0.00;;;;;;;3.40;93.96;100322.16;6045949;23;20014;-92
2023/01/11 01:59:06;;;;;;;0.30;0.30;;;;;;;3.43;93.61;100318.66;6022344;23;20049;-93
2023/01/11 02:01:47;;;;;;;0.85;0.57;;;;;;;3.48;95.44;100328.50;6070492;23;20034;-92
2023/01/11 02:04:40;;;;;;;0.00;0.00;;;;;;;3.48;93.63;100340.22;6073153;23;20015;-91
2023/01/11 02:07:06;;;;;;;0.00;0.00;;;;;;;3.49;92.99;100330.84;6042127;23;20014;-92
2023/01/11 02:09:43;;;;;;;0.10;0.10;;;;;;;3.54;93.70;100333.22;6095859;23;20034;-94
2023/01/11 02:12:08;;;;;;;0.00;0.00;;;;;;;3.51;92.63;100328.53;6046603;23;20021;-92
2023/01/11 02:14:36;;;;;;;0.00;0.00;;;;;;;3.47;94.09;100305.78;6046308;23;20054;-91
2023/01/11 02:17:01;;;;;;;0.15;0.15;;;;;;;3.42;94.93;100314.34;6070836;23;20029;-92
2023/01/11 02:19:27;;;;;;;0.00;0.00;;;;;;;3.47;94.01;100322.22;6069467;23;20093;-91
2023/01/11 02:22:13;;;;;;;0.00;0.00;;;;;;;3.46;94.67;100320.66;6045964;23;20022;-92
2023/01/11 02:24:47;;;;;;;0.30;0.30;;;;;;;3.47;95.48;100333.19;6069916;23;20033;-92
2023/01/11 02:27:26;;;;;;;1.83;1.73;;;;;;;3.44;94.73;100328.44;6046835;23;20025;-91
2023/01/11 02:30:05;;;;;;;0.30;0.30;;;;;;;3.36;94.35;100315.09;6070215;23;20033;-91
2023/01/11 02:32:49;;;;;;;0.00;0.00;;;;;;;3.37;93.99;100311.97;6046238;23;20146;-90
2023/01/11 02:35:22;;;;;;;0.00;0.00;;;;;;;3.38;93.82;100310.00;6069881;23;20133;-91
2023/01/11 02:38:09;;;;;;;0.20;0.20;;;;;;;3.46;93.98;100342.59;6045904;23;20037;-93
2023/01/11 02:40:53;;;;;;;0.00;0.00;;;;;;;3.41;96.57;100328.44;6069779;23;20563;-91
2023/01/11 02:46:51;;;;;;;0.25;0.25;;;;;;;3.28;96.92;100330.69;6043043;23;20388;-93
2023/01/11 02:49:51;;;;;;;0.85;0.85;;;;;;;3.25;97.69;100331.47;6045467;23;20435;-92
2023/01/11 02:52:38;;;;;;;0.00;0.00;;;;;;;3.22;96.01;100321.25;6049448;23;20029;-91
2023/01/11 02:55:05;;;;;;;0.32;0.32;;;;;;;3.22;96.83;100319.31;6022299;23;20041;-91
2023/01/11 02:57:32;;;;;;;0.00;0.00;;;;;;;3.25;95.00;100312.25;6045487;23;20014;-92
2023/01/11 02:59:58;;;;;;;0.00;0.00;;;;;;;3.16;96.93;100317.28;6021671;23;20018;-91
2023/01/11 03:02:24;;;;;;;0.52;0.52;;;;;;;3.07;97.24;100300.41;6070268;23;20419;-91
2023/01/11 03:04:49;;;;;;;0.00;0.00;;;;;;;3.05;95.69;100310.94;6045140;23;20021;-91
2023/01/11 03:07:50;;;;;;;0.00;0.00;;;;;;;3.23;97.43;100329.13;6070435;23;20026;-92
2023/01/11 03:10:27;;;;;;;0.05;0.05;;;;;;;3.16;99.20;100344.69;6070593;23;20026;-92
2023/01/11 03:13:08;;;;;;;0.00;0.00;;;;;;;3.13;97.97;100338.03;6070012;23;20093;-92
2023/01/11 03:16:07;;;;;;;0.82;0.82;;;;;;;3.12;96.56;100335.66;6022498;23;20118;-91
2023/01/11 03:18:40;;;;;;;0.00;0.00;;;;;;;3.12;96.54;100338.41;6083559;23;20089;-92
2023/01/11 03:21:37;;;;;;;0.00;0.00;;;;;;;3.09;96.66;100319.97;6070231;23;20018;-91
2023/01/11 03:24:24;;;;;;;0.00;0.00;;;;;;;3.08;97.86;100321.13;6045854;23;20057;-91
2023/01/11 03:27:01;;;;;;;0.80;0.80;;;;;;;3.03;99.21;100318.78;6069748;23;20038;-91
2023/01/11 03:29:35;;;;;;;0.00;0.00;;;;;;;3.02;95.98;100311.72;6045659;23;20018;-91
2023/01/11 03:32:00;;;;;;;;;;;;;;;3.00;98.27;100308.53;6069937;23;20018;-91
2023/01/11 03:35:05;;;;;;;0.00;0.00;;;;;;;2.99;99.93;100318.75;6069088;23;19916;-92
2023/01/11 03:37:32;;;;;;;;;;;;;;;2.93;100.00;100313.97;6095569;23;20097;-91
2023/01/11 03:40:09;;;;;;;0.05;0.05;;;;;;;2.87;100.00;100320.97;6021810;23;19916;-90
2023/01/11 03:43:09;;;;;;;0.00;0.00;;;;;;;2.76;100.00;100326.34;6045565;23;20331;-91
2023/01/11 03:45:24;;;;;;;0.00;0.00;;;;;;;2.68;100.00;100314.53;6073438;23;20014;-91
2023/01/11 03:47:50;;;;;;;0.28;0.10;;;;;;;2.68;100.00;100322.75;6069104;23;20010;-91
2023/01/11 03:50:17;;;;;;;0.00;0.00;;;;;;;2.68;100.00;100324.69;6044867;23;20025;-92
2023/01/11 03:52:43;;;;;;;0.20;0.20;;;;;;;2.55;100.00;100315.22;6045557;23;20103;-92
2023/01/11 03:55:11;;;;;;;0.00;0.00;;;;;;;2.59;100.00;100326.97;6069969;23;20394;-91
2023/01/11 03:57:41;;;;;;;0.00;0.00;;;;;;;2.43;100.00;100308.03;6044779;23;20325;-91
2023/01/11 04:00:08;;;;;;;0.30;0.25;;;;;;;2.52;100.00;100330.41;6045456;23;20014;-91
2023/01/11 04:02:35;;;;;;;0.00;0.00;;;;;;;2.44;100.00;100331.50;6045206;23;20026;-90
2023/01/11 04:05:02;;;;;;;0.00;0.00;;;;;;;2.35;100.00;100328.28;6021215;23;20014;-91
2023/01/11 04:07:28;;;;;;;0.00;0.00;;;;;;;2.04;100.00;100301.34;6068641;23;20332;-91
2023/01/11 04:09:53;;;;;;;0.00;0.00;;;;;;;2.26;100.00;100342.28;6044121;23;20017;-92
2023/01/11 04:12:19;;;;;;;0.00;0.00;;;;;;;2.15;100.00;100318.66;6094944;23;20014;-92
2023/01/11 04:14:44;;;;;;;0.08;0.08;;;;;;;2.04;100.00;100323.22;6067540;23;20002;-91
2023/01/11 04:17:10;;;;;;;0.00;0.00;;;;;;;2.14;100.00;100331.56;6068644;23;20018;-91
2023/01/11 04:19:35;;;;;;;0.10;0.10;;;;;;;2.10;100.00;100346.38;6067311;23;20064;-92
2023/01/11 04:22:01;;;;;;;0.43;0.43;;;;;;;1.95;100.00;100333.66;6045900;23;20254;-91
2023/01/11 04:24:26;;;;;;;0.00;0.00;;;;;;;1.87;100.00;100330.03;6094674;23;20048;-91
2023/01/11 04:26:52;;;;;;;0.10;0.10;;;;;;;2.01;100.00;100362.28;6044632;23;20450;-91
2023/01/11 04:29:17;;;;;;;0.00;0.00;;;;;;;1.87;100.00;100349.19;6043910;23;20089;-90
2023/01/11 04:31:43;;;;;;;0.00;0.00;;;;;;;1.88;100.00;100356.25;6044797;23;20444;-91
2023/01/11 04:34:10;;;;;;;0.00;0.00;;;;;;;1.77;100.00;100347.91;6067584;23;20454;-92
2023/01/11 04:36:36;;;;;;;0.00;0.00;;;;;;;1.82;100.00;100365.94;6068149;23;20010;-90
2023/01/11 04:39:01;;;;;;;0.00;0.00;;;;;;;1.68;100.00;100344.66;6019763;23;20097;-92
2023/01/11 04:44:11;;;;;;;0.00;0.00;;;;;;;1.83;100.00;100370.25;6047100;23;20021;-91
2023/01/11 04:46:37;;;;;;;0.10;0.10;;;;;;;1.69;100.00;100362.63;6068939;23;20438;-91
2023/01/11 04:49:02;;;;;;;0.00;0.00;;;;;;;1.61;100.00;100357.44;6067452;23;20049;-91
2023/01/11 04:51:28;;;;;;;0.05;0.05;;;;;;;1.50;100.00;100360.00;6019153;23;20014;-91
2023/01/11 04:53:53;;;;;;;0.20;0.20;;;;;;;1.60;100.00;100369.53;6067318;23;20018;-92
2023/01/11 04:56:19;;;;;;;0.00;0.00;;;;;;;1.57;100.00;100373.78;6069055;23;20459;-91
2023/01/11 04:58:45;;;;;;;0.00;0.00;;;;;;;1.34;100.00;100346.50;6019650;23;20506;-91
2023/01/11 05:01:15;;;;;;;0.10;0.10;;;;;;;1.46;100.00;100372.06;6068268;23;20444;-91
2023/01/11 05:03:41;;;;;;;0.10;0.10;;;;;;;1.29;100.00;100360.50;6067839;23;20513;-90
2023/01/11 05:06:07;;;;;;;0.00;0.00;;;;;;;1.22;100.00;100348.63;6068128;23;20293;-92
2023/01/11 05:08:32;;;;;;;0.00;0.00;;;;;;;1.25;100.00;100362.38;6044233;23;20435;-93
2023/01/11 05:11:01;;;;;;;0.00;0.00;;;;;;;1.33;100.00;100371.47;6044490;23;20018;-90
2023/01/11 05:13:40;;;;;;;0.00;0.00;;;;;;;1.35;100.00;100374.59;6067945;23;20014;-91
2023/01/11 05:16:17;;;;;;;0.60;0.60;;;;;;;1.24;100.00;100362.72;6070910;23;20021;-91
2023/01/11 05:18:48;;;;;;;0.00;0.00;;;;;;;1.15;100.00;100359.44;6043450;23;20073;-91
2023/01/11 05:21:16;;;;;;;0.20;0.17;;;;;;;1.30;100.00;100385.84;6067868;23;20010;-92
2023/01/11 05:23:42;;;;;;;0.35;0.30;;;;;;;1.33;100.00;100376.94;6044116;23;20097;-92
2023/01/11 05:26:13;;;;;;;0.10;0.10;;;;;;;1.24;100.00;100354.53;6068221;23;20001;-91
2023/01/11 05:28:38;;;;;;;0.00;0.00;;;;;;;1.49;100.00;100391.25;6043238;23;20105;-93
2023/01/11 05:31:04;;;;;;;2.47;1.30;;;;;;;1.40;100.00;100371.56;6066648;23;20022;-91
2023/01/11 05:33:30;;;;;;;0.93;0.93;;;;;;;1.25;100.00;100339.72;6069917;23;20447;-91
2023/01/11 05:36:06;;;;;;;0.38;0.25;;;;;;;1.47;100.00;100377.16;6093829;23;20173;-91
2023/01/11 05:38:33;;;;;;;0.10;0.10;;;;;;;1.40;100.00;100360.63;6068946;23;20137;-90
2023/01/11 05:41:00;;;;;;;0.65;0.65;;;;;;;1.37;100.00;100373.09;6045173;23;20126;-92
2023/01/11 05:43:27;;;;;;;0.00;0.00;;;;;;;1.19;100.00;100355.63;6022235;23;20137;-92
2023/01/11 05:45:53;;;;;;;0.00;0.00;;;;;;;1.01;100.00;100345.56;6044098;23;20097;-91
2023/01/11 05:48:19;;;;;;;0.00;0.00;;;;;;;1.09;100.00;100363.66;6040346;23;20014;-91
2023/01/11 05:50:55;;;;;;;0.00;0.00;;;;;;;1.02;100.00;100366.25;6041332;23;20143;-91
2023/01/11 05:53:22;;;;;;;0.30;0.30;;;;;;;0.97;100.00;100352.91;6066958;23;20015;-93
2023/01/11 05:55:55;;;;;;;0.10;0.10;;;;;;;0.97;100.00;100363.84;6039495;23;20089;-92
2023/01/11 05:58:22;;;;;;;0.08;0.08;;;;;;;0.90;100.00;100373.47;6016736;23;20033;-92
2023/01/11 06:00:49;;;;;;;0.30;0.30;;;;;;;0.84;100.00;100364.03;6016310;23;20014;-91
2023/01/11 06:03:14;;;;;;;0.00;0.00;;;;;;;0.79;100.00;100358.84;6041071;23;20025;-93
2023/01/11 06:05:40;;;;;;;0.98;0.82;;;;;;;0.85;100.00;100387.44;6067647;23;20014;-92
2023/01/11 06:08:05;;;;;;;0.10;0.10;;;;;;;0.74;100.00;100389.19;6068241;23;20592;-92
2023/01/11 06:10:31;;;;;;;0.50;0.50;;;;;;;0.86;100.00;100393.69;6042707;23;20021;-92
2023/01/11 06:13:25;;;;;;;0.85;0.85;;;;;;;0.82;100.00;100388.16;6020518;23;20010;-93
2023/01/11 06:15:42;;;;;;;0.30;0.30;;;;;;;0.89;100.00;100384.78;6069081;23;20014;-92
2023/01/11 06:18:08;;;;;;;0.28;0.28;;;;;;;0.83;100.00;100370.63;6043618;23;20014;-92
2023/01/11 06:20:33;;;;;;;1.48;0.70;;;;;;;0.82;100.00;100360.84;6041519;23;20033;-93
2023/01/11 06:22:59;;;;;;;0.30;0.30;;;;;;;1.08;100.00;100364.81;6067350;23;20058;-93
2023/01/11 06:25:25;;;;;;;3.15;0.65;;;;;;;1.03;100.00;100359.63;6066900;23;20014;-92
2023/01/11 06:27:52;;;;;;;0.00;0.00;;;;;;;1.14;100.00;100369.59;6068476;23;20010;-92
2023/01/11 06:30:19;;;;;;;0.73;0.73;;;;;;;1.19;100.00;100373.97;6020775;23;20007;-92
2023/01/11 06:32:45;;;;;;;0.17;0.17;;;;;;;1.27;100.00;100364.72;6066309;23;20018;-93
2023/01/11 06:35:11;;;;;;;0.00;0.00;;;;;;;1.21;100.00;100355.28;6019833;23;20014;-93
2023/01/11 06:37:36;;;;;;;0.10;0.10;;;;;;;1.30;100.00;100372.19;6020473;23;20010;-90
2023/01/11 06:40:03;;;;;;;0.22;0.22;;;;;;;1.18;100.00;100356.78;6095406;23;20018;-91
2023/01/11 06:42:28;;;;;;;0.35;0.35;;;;;;;1.10;100.00;100346.09;6068451;23;20010;-92
2023/01/11 06:44:54;;;;;;;0.08;0.08;;;;;;;1.16;100.00;100372.75;6069177;23;20025;-92
2023/01/11 08:03:34;;;;;;;0.40;0.40;;;;;;;2.49;100.00;100303.00;6097803;23;20026;-93
2023/01/11 08:06:00;;;;;;;0.15;0.15;;;;;;;2.71;100.00;100329.44;6027815;23;20046;-95
2023/01/11 08:08:26;;;;;;;0.08;0.08;;;;;;;2.67;100.00;100318.44;6028699;23;20021;-94
2023/01/11 08:16:22;;;;;;;0.32;0.32;;;;;;;2.78;100.00;100313.88;6050337;23;20013;-94
2023/01/11 08:18:52;;;;;;;0.43;0.43;;;;;;;3.00;100.00;100341.44;6045755;23;20069;-94
2023/01/11 08:21:20;;;;;;;0.35;0.35;;;;;;;2.99;100.00;100337.13;6046058;23;20018;-93
2023/01/11 08:23:46;;;;;;;0.00;0.00;;;;;;;3.29;100.00;100381.63;6022558;23;20453;-94
2023/01/11 08:26:15;;;;;;;0.00;0.00;;;;;;;3.18;100.00;100348.66;6046339;23;20014;-94
2023/01/11 08:28:45;;;;;;;0.52;0.35;;;;;;;3.34;100.00;100377.75;6046857;23;20014;-95
2023/01/11 08:31:11;;;;;;;0.10;0.10;;;;;;;3.40;100.00;100366.03;6046571;23;20074;-94
2023/01/11 08:33:36;;;;;;;0.00;0.00;;;;;;;3.32;100.00;100364.41;6022693;23;20002;-95
2023/01/11 08:36:07;;;;;;;0.30;0.30;;;;;;;3.63;100.00;100377.59;6026824;23;20456;-96
2023/01/11 08:38:33;;;;;;;0.45;0.45;;;;;;;3.63;100.00;100360.34;6026504;23;20014;-96
2023/01/11 08:41:00;;;;;;;0.10;0.10;;;;;;;3.70;100.00;100363.91;6026756;23;20044;-95
2023/01/11 08:43:30;;;;;;;0.25;0.25;;;;;;;3.80;100.00;100361.63;6028214;23;20053;-95
2023/01/11 08:45:56;;;;;;;0.00;0.00;;;;;;;3.93;100.00;100371.06;6025259;23;20055;-96
2023/01/11 08:48:22;;;;;;;0.25;0.25;;;;;;;4.19;100.00;100396.31;6049342;23;20019;-95
2023/01/11 08:50:48;;;;;;;0.10;0.10;;;;;;;3.90;100.00;100371.84;6024135;23;20022;-96
2023/01/11 08:53:14;;;;;;;0.10;0.10;;;;;;;4.13;100.00;100402.56;6024308;23;20055;-94
2023/01/11 08:55:43;;;;;;;0.30;0.30;;;;;;;4.07;100.00;100395.88;6020851;23;20006;-93
2023/01/11 08:58:09;;;;;;;0.10;0.10;;;;;;;3.98;100.00;100395.41;6045845;23;20014;-94
2023/01/11 09:00:35;;;;;;;0.00;0.00;;;;;;;4.04;100.00;100432.31;6045470;23;20041;-92
2023/01/11 09:03:01;;;;;;;0.00;0.00;;;;;;;4.06;100.00;100428.00;6021709;23;20434;-93
2023/01/11 09:05:26;;;;;;;0.43;0.40;;;;;;;4.12;100.00;100439.44;6051017;23;20099;-94
2023/01/11 09:07:56;;;;;;;0.15;0.15;;;;;;;4.13;100.00;100430.00;6053624;23;20022;-92
2023/01/11 09:10:26;;;;;;;0.35;0.30;;;;;;;4.29;100.00;100441.47;6027015;23;20003;-93
2023/01/11 09:12:54;;;;;;;0.00;0.00;;;;;;;4.16;100.00;100415.53;6025486;23;20022;-94
2023/01/11 09:15:20;;;;;;;0.00;0.00;;;;;;;4.18;100.00;100407.69;6023783;23;20523;-95
2023/01/11 09:17:46;;;;;;;0.10;0.10;;;;;;;4.22;100.00;100405.75;6024799;23;20109;-95
2023/01/11 09:20:12;;;;;;;0.95;0.95;;;;;;;4.26;100.00;100417.53;6024140;23;20020;-95
2023/01/11 09:22:38;;;;;;;0.15;0.15;;;;;;;4.28;100.00;100408.91;6025002;23;20007;-96
2023/01/11 09:25:05;;;;;;;0.30;0.30;;;;;;;4.31;100.00;100411.66;6049323;23;20085;-94
2023/01/11 09:27:31;;;;;;;0.00;0.00;;;;;;;4.45;100.00;100402.72;6049831;23;20009;-96
2023/01/11 09:29:56;;;;;;;0.00;0.00;;;;;;;4.61;100.00;100414.16;6023570;23;20050;-93
2023/01/11 09:32:22;;;;;;;0.22;0.22;;;;;;;4.72;99.56;100405.94;6026484;23;20040;-94
2023/01/11 09:34:49;;;;;;;0.00;0.00;;;;;;;5.07;98.73;100428.78;6025296;23;20480;-95
2023/01/11 09:37:15;;;;;;;0.28;0.28;;;;;;;4.88;95.61;100390.66;6026079;23;20478;-94
2023/01/11 09:39:41;;;;;;;0.00;0.00;;;;;;;4.97;93.55;100388.34;6026731;23;20262;-96
2023/01/11 09:42:19;;;;;;;0.35;0.35;;;;;;;5.16;93.47;100376.16;6050480;23;20026;-95
2023/01/11 09:44:55;;;;;;;0.00;0.00;;;;;;;5.20;91.73;100387.16;6051422;23;20014;-95
2023/01/11 09:47:51;;;;;;;0.10;0.10;;;;;;;5.43;89.12;100391.09;6029256;23;20010;-93
2023/01/11 09:50:27;;;;;;;1.05;1.00;;;;;;;5.43;87.80;100371.84;6062868;23;20014;-95
2023/01/11 09:52:58;;;;;;;0.95;0.57;;;;;;;5.46;87.73;100368.28;6032149;23;20015;-94
2023/01/11 09:55:51;;;;;;;0.08;0.08;;;;;;;5.53;87.13;100356.50;6030863;23;20037;-93
2023/01/11 09:58:52;;;;;;;0.28;0.28;;;;;;;5.97;84.34;100386.34;6034688;23;20077;-96
2023/01/11 10:01:52;;;;;;;0.10;0.10;;;;;;;5.77;85.99;100355.69;6060010;23;20361;-94
2023/01/11 10:04:37;;;;;;;0.10;0.10;;;;;;;6.28;85.99;100379.94;6058837;23;20021;-95
2023/01/11 10:07:24;;;;;;;0.00;0.00;;;;;;;6.29;81.93;100356.72;6035882;23;20015;-94
2023/01/11 10:10:07;;;;;;;0.10;0.10;;;;;;;6.53;81.43;100377.84;6075649;23;20318;-92
2023/01/11 10:12:42;;;;;;;0.10;0.10;;;;;;;6.52;79.71;100368.00;6045825;23;20015;-93
2023/01/11 10:15:11;;;;;;;0.13;0.13;;;;;;;6.81;80.09;100381.63;6022314;23;20109;-93
2023/01/11 10:17:54;;;;;;;0.15;0.15;;;;;;;6.88;79.36;100354.03;6046537;23;20464;-93
2023/01/11 10:20:23;;;;;;;0.25;0.22;;;;;;;7.35;71.81;100369.06;6046506;23;20440;-94
2023/01/11 10:22:53;;;;;;;0.03;0.03;;;;;;;7.29;66.92;100360.41;6024066;23;20018;-92
2023/01/11 10:25:24;;;;;;;0.15;0.15;;;;;;;7.60;71.56;100372.38;6022651;23;20441;-93
2023/01/11 10:28:09;;;;;;;0.10;0.10;;;;;;;7.32;70.70;100347.78;6026088;23;20026;-95
2023/01/11 10:31:06;;;;;;;0.05;0.05;;;;;;;7.25;70.30;100343.09;6040714;23;20015;-95
2023/01/11 10:34:23;;;;;;;0.10;0.10;;;;;;;7.76;71.46;100380.91;6090927;23;20022;-95
2023/01/11 10:43:28;;;;;;;0.00;0.00;;;;;;;7.93;64.23;100348.75;6095177;23;20019;-95
2023/01/11 10:46:23;;;;;;;0.03;0.03;;;;;;;7.98;61.71;100342.78;6072141;23;20006;-96
2023/01/11 10:49:37;;;;;;;0.28;0.28;;;;;;;8.15;62.94;100365.88;6072030;23;20015;-94
2023/01/11 10:52:17;;;;;;;0.20;0.20;;;;;;;8.25;61.00;100365.75;5984204;23;20094;-94
2023/01/11 10:54:53;;;;;;;0.03;0.03;;;;;;;8.23;62.76;100334.97;6046366;23;20014;-94
2023/01/11 10:57:48;;;;;;;0.10;0.10;;;;;;;8.67;62.32;100363.66;6024516;23;20018;-94
2023/01/11 11:00:57;;;;;;;0.20;0.15;;;;;;;8.77;57.13;100359.97;6023268;23;20034;-93
2023/01/11 11:03:59;;;;;;;0.10;0.10;;;;;;;8.64;56.27;100354.22;6047371;23;20052;-93
2023/01/11 11:07:00;;;;;;;0.00;0.00;;;;;;;8.36;59.01;100322.22;6032637;23;20014;-95
2023/01/11 11:26:44;;;;;;;1.02;0.55;;;;;;;9.02;57.34;100301.50;6070984;23;20031;-94
2023/01/11 11:29:13;;;;;;;1.00;0.80;;;;;;;9.15;55.71;100310.75;5993783;23;20109;-94
2023/01/11 11:31:45;;;;;;;0.10;0.10;;;;;;;9.23;54.01;100339.88;5995061;23;20022;-94
2023/01/11 11:34:21;;;;;;;0.03;0.03;;;;;;;9.23;54.24;100334.34;5994226;23;20046;-93
2023/01/11 11:36:54;;;;;;;0.57;0.52;;;;;;;9.12;52.33;100312.41;5995619;23;20043;-94
2023/01/11 11:39:30;;;;;;;0.10;0.10;;;;;;;8.94;53.16;100289.75;5994814;23;20011;-95
2023/01/11 11:42:06;;;;;;;0.80;0.80;;;;;;;9.05;52.73;100312.50;5993914;23;20018;-94
2023/01/11 11:45:03;;;;;;;0.57;0.57;;;;;;;9.02;54.28;100299.50;6025685;23;20026;-96
2023/01/11 12:02:51;;;;;;;0.10;0.10;;;;;;;9.45;49.81;100309.88;6113951;23;20010;-96
2023/01/11 12:05:18;;;;;;;0.10;0.10;;;;;;;9.25;50.28;100276.59;6088503;23;20045;-95
2023/01/11 12:07:47;;;;;;;0.10;0.10;;;;;;;9.46;51.33;100283.75;6088219;23;20030;-94
2023/01/11 12:13:07;;;;;;;0.00;0.00;;;;;;;9.80;50.68;100278.72;6077965;23;20023;-95
2023/01/11 12:15:37;;;;;;;0.03;0.03;;;;;;;10.16;51.19;100307.31;5971990;23;20476;-94
2023/01/11 12:18:30;;;;;;;0.52;0.30;;;;;;;9.70;49.69;100312.97;5994710;23;20053;-94
2023/01/11 12:21:38;;;;;;;0.25;0.25;;;;;;;9.48;49.94;100297.94;6017248;23;20026;-94
2023/01/11 12:44:23;;;;;;;0.00;0.00;;;;;;;9.16;51.73;100226.53;6122575;23;20033;-95
2023/01/11 12:50:14;;;;;;;0.00;0.00;;;;;;;9.30;52.91;100257.50;6088103;23;20023;-93
2023/01/11 12:52:57;;;;;;;0.00;0.00;;;;;;;9.46;52.34;100245.75;6008758;23;20050;-92
2023/01/11 12:55:29;;;;;;;0.40;0.40;;;;;;;9.34;50.87;100249.91;6016165;23;20087;-92
2023/01/11 13:04:19;;;;;;;1.42;1.33;;;;;;;8.79;50.34;100228.34;6095001;23;20383;-93
2023/01/11 13:07:03;;;;;;;0.10;0.10;;;;;;;8.90;50.19;100231.72;6045318;23;20070;-94
2023/01/11 13:09:51;;;;;;;0.10;0.10;;;;;;;8.78;50.02;100203.88;6045350;23;20010;-93
2023/01/11 13:12:34;;;;;;;0.00;0.00;;;;;;;9.28;52.31;100251.63;6046659;23;20022;-93
2023/01/11 13:15:04;;;;;;;0.17;0.17;;;;;;;9.33;50.64;100228.22;6045548;23;20019;-93
2023/01/11 13:22:52;;;;;;;0.15;0.15;;;;;;;9.58;49.92;100217.44;6077273;23;20469;-93
2023/01/11 13:25:27;;;;;;;0.00;0.00;;;;;;;9.71;49.35;100245.25;6040441;23;20015;-93
2023/01/11 13:28:01;;;;;;;0.15;0.15;;;;;;;9.72;48.88;100244.06;5993852;23;20019;-93
2023/01/11 13:30:30;;;;;;;2.83;0.40;;;;;;;9.47;48.38;100221.59;6018166;23;20026;-94
2023/01/11 13:33:01;;;;;;;0.03;0.03;;;;;;;9.59;49.42;100234.81;5994121;23;20025;-93
2023/01/11 13:35:36;;;;;;;4.88;1.42;;;;;;;9.58;48.32;100227.75;6016747;23;20019;-93
2023/01/11 14:34:36;;;;;;;1.92;1.80;;;;;;;7.87;60.12;100262.03;6104302;23;20026;-91
2023/01/11 14:37:33;;;;;;;0.80;0.80;;;;;;;7.53;60.33;100248.22;6074683;23;20018;-95
2023/01/11 14:40:33;;;;;;;0.30;0.30;;;;;;;7.56;61.17;100277.00;6087195;23;20030;-94
2023/01/11 14:43:11;;;;;;;3.40;0.38;;;;;;;7.44;62.50;100265.25;6086663;23;20015;-94
2023/01/11 14:46:15;;;;;;;4.45;1.08;;;;;;;7.41;64.57;100270.81;6089973;23;20023;-94
2023/01/11 14:49:11;;;;;;;0.22;0.22;;;;;;;7.17;66.50;100249.75;6084861;23;20024;-94
2023/01/11 14:51:49;;;;;;;1.83;1.73;;;;;;;7.27;68.95;100282.00;6083994;23;20053;-95
2023/01/11 14:54:28;;;;;;;0.30;0.30;;;;;;;7.09;67.71;100290.44;6063179;23;20034;-94
2023/01/11 14:56:56;;;;;;;0.00;0.00;;;;;;;6.89;70.77;100275.63;6072334;23;20109;-92
2023/01/11 14:59:23;;;;;;;0.55;0.50;;;;;;;6.92;73.12;100297.66;6069664;23;20072;-93
2023/01/11 15:02:04;;;;;;;0.28;0.28;;;;;;;6.80;73.01;100278.84;6070113;23;20056;-93
2023/01/11 15:04:32;;;;;;;0.10;0.10;;;;;;;6.62;75.62;100272.69;6068822;23;20014;-93
2023/01/11 15:06:58;;;;;;;0.32;0.32;;;;;;;6.42;76.85;100264.16;6044606;23;20018;-92
2023/01/11 15:09:46;;;;;;;0.95;0.95;;;;;;;6.25;74.62;100273.31;6068298;23;20017;-93
2023/01/11 15:12:35;;;;;;;0.25;0.20;;;;;;;6.25;77.97;100281.56;6075064;23;20089;-94
2023/01/11 15:15:05;;;;;;;0.50;0.50;;;;;;;6.28;80.14;100291.78;6084455;23;20002;-95
2023/01/11 15:20:19;;;;;;;1.60;1.27;;;;;;;6.07;84.49;100289.13;6072225;23;20026;-92
2023/01/11 15:22:45;;;;;;;0.60;0.60;;;;;;;5.89;85.34;100267.19;6054305;23;20018;-91
2023/01/11 15:25:25;;;;;;;2.88;2.65;;;;;;;5.81;84.24;100270.34;6053993;23;20010;-91
2023/01/11 15:27:51;;;;;;;0.65;0.65;;;;;;;5.86;84.40;100286.44;6078343;23;20038;-92
2023/01/11 15:30:29;;;;;;;1.50;1.30;;;;;;;5.71;84.70;100295.91;6049951;23;20364;-92
2023/01/11 15:33:17;;;;;;;0.77;0.77;;;;;;;5.54;85.51;100287.31;6071639;23;20018;-94
2023/01/11 15:35:55;;;;;;;0.43;0.43;;;;;;;5.48;87.53;100288.13;6067098;23;20410;-92
2023/01/11 15:38:29;;;;;;;1.85;1.70;;;;;;;5.34;89.40;100282.66;6092287;23;20097;-91
2023/01/11 15:40:56;;;;;;;1.27;1.00;;;;;;;5.01;91.35;100250.88;6068433;23;20014;-92
2023/01/11 15:43:43;;;;;;;1.58;1.48;;;;;;;5.13;93.49;100273.25;6068871;23;20456;-92
2023/01/11 15:49:45;;;;;;;1.88;1.75;;;;;;;4.99;93.97;100269.72;6092985;23;20011;-92